This is the latest recevied weather packets stored in our database for station/object MIDVIL-WX. If no packets are shown the sender has not sent any weather packets the latest 10 day(s).
| Time | Temp. | Humidity | Pressure | Rain* | Wind** | Luminosity | Snow |
|---|---|---|---|---|---|---|---|
| 1777641325 | 5° C | 62% | 988.6 hPa | 0 mm | - | - | - |
| 1777640452 | 4.44° C | 62% | 988.6 hPa | 0 mm | - | - | - |
| 1777638642 | 3.89° C | 67% | 988.3 hPa | 0 mm | - | - | - |
| 1777636854 | 3.89° C | 67% | 988.3 hPa | 0 mm | - | - | - |
| 1777635042 | 3.33° C | 82% | 987.6 hPa | 0 mm | - | - | - |
| 1777634125 | 3.89° C | 82% | 987.6 hPa | 0 mm | - | - | - |
| 1777633252 | 3.33° C | 82% | 987.6 hPa | 0 mm | - | - | - |
| 1777631443 | 3.33° C | 82% | 987.9 hPa | 0 mm | - | - | - |
| 1777630525 | 3.33° C | 82% | 987.9 hPa | 0 mm | - | - | - |
| 1777629654 | 3.33° C | 82% | 987.9 hPa | 0 mm | - | - | - |
| 1777627841 | 3.33° C | 87% | 988.2 hPa | 0 mm | - | - | - |
| 1777626925 | 2.78° C | 87% | 988.2 hPa | 0 mm | - | - | - |
| 1777626050 | 2.78° C | 87% | 988.2 hPa | 0 mm | - | - | - |
| 1777625125 | 2.78° C | 86% | 987.9 hPa | 0 mm | - | - | - |
| 1777624239 | 2.78° C | 88% | 987.5 hPa | 0 mm | - | - | - |
| 1777623325 | 3.89° C | 88% | 987.6 hPa | 0 mm | - | - | - |
| 1777622452 | 3.89° C | 88% | 987.6 hPa | 0 mm | - | - | - |
| 1777620643 | 3.89° C | 85% | 987.9 hPa | 0 mm | - | - | - |
| 1777619724 | 4.44° C | 85% | 987.9 hPa | 0 mm | - | - | - |
| 1777618851 | 4.44° C | 85% | 987.9 hPa | 0 mm | - | - | - |
| 1777617925 | 4.44° C | 79% | 988.4 hPa | 0 mm | - | - | - |
| 1777617044 | 4.44° C | 85% | 987.6 hPa | 0 mm | - | - | - |
| 1777616125 | 4.44° C | 85% | 987.6 hPa | 0 mm | - | - | - |
| 1777615255 | 5° C | 85% | 987.6 hPa | 0 mm | - | - | - |
| 1777614325 | 5° C | 81% | 989.1 hPa | 0 mm | - | - | - |
* Rain latest hour (hover to see other rain measurements)
** Current wind speed in m/s (hover to see current wind gust speed)